Terminal Aerodrome Forecast
Issued by NWS

Home | Current Version | Previous Version | Graphics & Text | Print | Product List | Glossary On
Versions: 1 2 3 4 5 6 7 8 9 10 11 12 13 14 15 16
133
FTUS43 KIWX 200520
TAFSBN
TAF
KSBN 200520Z 2006/2106 11004KT P6SM SCT250
     FM201000 13007KT 2SM BR SCT003 BKN250
     FM201400 14007KT 6SM BR BKN150
     FM201800 15011KT P6SM SCT250
     FM210500 18013G22KT P6SM OVC150=

USA.gov is the U.S. government's official web portal to all federal, state and local government web resources and services.